Terminal Aerodrome Forecast
Issued by NWS

Home | Current Version | Previous Version | Text Only | Print | Product List | Glossary On
Versions: 1 2 3 4 5 6 7 8 9 10 11 12 13 14 15 16
000
FTUS41 KGYX 030525
TAFAUG
TAF
KAUG 030525Z 0306/0406 31012G20KT P6SM FEW050
     FM030900 29006KT P6SM SKC
     FM032000 19006KT P6SM BKN100
     FM040200 18009G17KT 3SM -SN BR OVC015=

USA.gov is the U.S. government's official web portal to all federal, state and local government web resources and services.